createdAt,value
2019-03-23T00:03:31.015Z,5.03
2019-03-23T00:08:26.350Z,4.90
2019-03-23T00:13:22.173Z,4.70
2019-03-23T00:18:17.690Z,4.60
2019-03-23T00:23:13.338Z,4.37
2019-03-23T00:28:08.592Z,4.63
2019-03-23T00:33:03.852Z,4.50
2019-03-23T00:37:59.123Z,4.40
2019-03-23T00:42:54.377Z,5.40
2019-03-23T00:47:49.642Z,4.70
2019-03-23T00:52:44.898Z,4.17
2019-03-23T00:57:40.154Z,5.23
2019-03-23T01:02:35.747Z,5.30
2019-03-23T01:07:37.731Z,5.33
2019-03-23T01:12:32.980Z,5.60
2019-03-23T01:17:28.246Z,5.70
2019-03-23T01:22:23.506Z,5.73
2019-03-23T01:27:19.258Z,5.80
2019-03-23T01:32:14.488Z,5.80
2019-03-23T01:37:09.739Z,5.57
2019-03-23T01:42:05.110Z,5.53
2019-03-23T01:47:00.366Z,5.87
2019-03-23T01:51:55.633Z,5.83
2019-03-23T01:56:50.910Z,4.97
2019-03-23T02:01:46.264Z,5.63
2019-03-23T02:06:41.574Z,5.77
2019-03-23T02:11:36.950Z,5.70
2019-03-23T02:16:32.542Z,6.40
2019-03-23T02:21:27.803Z,6.33
2019-03-23T02:26:23.381Z,6.40
2019-03-23T02:31:19.220Z,6.50
2019-03-23T02:36:14.471Z,5.50
2019-03-23T02:41:10.067Z,6.03
2019-03-23T02:46:05.399Z,6.37
2019-03-23T02:51:00.671Z,6.30
2019-03-23T02:55:55.914Z,6.77
2019-03-23T03:00:51.169Z,6.10
2019-03-23T03:05:46.692Z,5.57
2019-03-23T03:10:42.639Z,5.60
2019-03-23T03:15:37.965Z,5.77
2019-03-23T03:20:33.224Z,5.60
2019-03-23T03:25:28.507Z,5.17
2019-03-23T03:30:23.774Z,5.63
2019-03-23T03:35:19.015Z,4.73
2019-03-23T03:40:14.692Z,5.40
2019-03-23T03:45:13.392Z,4.93
2019-03-23T03:50:10.022Z,5.27
2019-03-23T03:55:05.407Z,5.60
2019-03-23T04:00:00.666Z,6.00
2019-03-23T04:04:56.198Z,5.43
2019-03-23T04:09:51.453Z,5.80
2019-03-23T04:14:47.007Z,5.40
2019-03-23T04:19:42.299Z,5.93
2019-03-23T04:24:37.914Z,5.90
2019-03-23T04:29:33.364Z,6.40
2019-03-23T04:34:28.624Z,6.63
2019-03-23T04:39:24.193Z,10.27
2019-03-23T04:44:19.466Z,9.27
2019-03-23T04:49:14.734Z,7.47
2019-03-23T04:54:10.005Z,7.50
2019-03-23T04:59:05.335Z,6.57
2019-03-23T05:04:01.396Z,7.60
2019-03-23T05:08:56.944Z,8.00
2019-03-23T05:13:52.220Z,7.03
2019-03-23T05:18:47.610Z,6.67
2019-03-23T05:23:45.770Z,7.70
2019-03-23T05:28:40.604Z,8.30
2019-03-23T05:33:35.863Z,8.13
2019-03-23T05:38:31.131Z,7.90
2019-03-23T05:43:26.402Z,8.60
2019-03-23T05:48:21.684Z,7.67
2019-03-23T05:53:17.120Z,8.87
2019-03-23T05:58:12.387Z,8.53
2019-03-23T06:03:07.979Z,7.57
2019-03-23T06:08:03.240Z,8.07
2019-03-23T06:12:58.508Z,7.37
2019-03-23T06:17:54.001Z,7.57
2019-03-23T06:22:49.327Z,7.33
2019-03-23T06:27:44.704Z,7.40
2019-03-23T06:32:39.954Z,7.73
2019-03-23T06:37:35.220Z,7.20
2019-03-23T06:42:30.486Z,7.10
2019-03-23T06:47:25.812Z,7.17
2019-03-23T06:52:21.126Z,7.80
2019-03-23T06:57:16.387Z,8.17
2019-03-23T07:02:14.715Z,7.50
2019-03-23T07:07:10.308Z,7.17
2019-03-23T07:12:05.801Z,7.20
2019-03-23T07:17:01.061Z,7.43
2019-03-23T07:21:56.730Z,7.13
2019-03-23T07:26:52.313Z,7.90
2019-03-23T07:31:47.587Z,7.47
2019-03-23T07:36:43.322Z,8.10
2019-03-23T07:41:38.594Z,8.90
2019-03-23T07:46:34.808Z,7.87
2019-03-23T07:51:30.074Z,8.13
2019-03-23T07:56:25.341Z,7.97
2019-03-23T08:01:20.606Z,7.67
2019-03-23T08:06:16.170Z,7.50
2019-03-23T08:11:14.876Z,7.40
2019-03-23T08:16:12.163Z,7.40
2019-03-23T08:21:07.981Z,7.43
2019-03-23T08:26:03.266Z,8.27
2019-03-23T08:30:58.540Z,7.77
2019-03-23T08:35:53.823Z,7.37
2019-03-23T08:40:49.297Z,7.50
2019-03-23T08:45:45.872Z,8.43
2019-03-23T08:50:41.177Z,8.70
2019-03-23T08:55:36.497Z,8.58
2019-03-23T09:00:31.837Z,7.53
2019-03-23T09:05:27.142Z,7.50
2019-03-23T09:10:28.303Z,8.27
2019-03-23T09:15:24.530Z,8.97
2019-03-23T09:20:20.248Z,9.80
2019-03-23T09:25:15.574Z,9.03
2019-03-23T09:30:11.266Z,8.83
2019-03-23T09:35:06.892Z,9.33
2019-03-23T09:40:10.053Z,9.77
2019-03-23T09:44:59.542Z,8.47
2019-03-23T09:49:57.057Z,9.10
2019-03-23T09:54:52.337Z,9.03
2019-03-23T09:59:47.728Z,8.30
2019-03-23T10:04:46.256Z,9.07
2019-03-23T10:09:41.543Z,9.13
2019-03-23T10:14:36.809Z,9.33
2019-03-23T10:19:32.424Z,9.50
2019-03-23T10:24:27.710Z,10.13
2019-03-23T10:29:28.999Z,10.63
2019-03-23T10:34:24.285Z,11.17
2019-03-23T10:39:19.561Z,11.40
2019-03-23T10:44:14.840Z,12.30
2019-03-23T10:49:10.407Z,12.67
2019-03-23T10:54:06.685Z,13.27
2019-03-23T10:59:02.205Z,13.00
2019-03-23T11:03:57.488Z,12.47
2019-03-23T11:08:52.754Z,12.58
2019-03-23T11:13:48.073Z,12.77
2019-03-23T11:18:43.793Z,13.90
2019-03-23T11:23:39.123Z,14.03
2019-03-23T11:28:34.368Z,13.83
2019-03-23T11:33:30.695Z,13.40
2019-03-23T11:38:25.956Z,14.13
2019-03-23T11:43:21.228Z,14.70
2019-03-23T11:48:16.516Z,15.08
2019-03-23T11:53:12.817Z,13.00
2019-03-23T11:58:08.098Z,16.23
2019-03-23T12:03:08.888Z,15.30
2019-03-23T12:08:04.333Z,14.13
2019-03-23T12:12:59.602Z,14.28
2019-03-23T12:18:04.185Z,13.07
2019-03-23T12:22:59.454Z,13.20
2019-03-23T12:27:56.630Z,14.60
2019-03-23T12:32:52.362Z,13.30
2019-03-23T12:37:47.735Z,13.27
2019-03-23T12:42:43.097Z,13.22
2019-03-23T12:47:38.372Z,13.60
2019-03-23T12:52:33.708Z,14.83
2019-03-23T12:57:28.968Z,15.95
2019-03-23T13:02:24.534Z,15.28
2019-03-23T13:07:21.153Z,14.68
2019-03-23T13:12:16.695Z,14.50
2019-03-23T13:17:11.959Z,15.00
2019-03-23T13:22:07.272Z,15.45
2019-03-23T13:27:02.878Z,15.20
2019-03-23T13:32:10.693Z,15.23
2019-03-23T13:37:05.995Z,14.97
2019-03-23T13:42:01.339Z,15.03
2019-03-23T13:46:56.961Z,15.80
2019-03-23T13:51:52.488Z,16.23
2019-03-23T13:56:47.985Z,15.20
2019-03-23T14:01:43.270Z,15.67
2019-03-23T14:06:38.795Z,13.70
2019-03-23T14:11:34.073Z,15.30
2019-03-23T14:16:29.335Z,13.57
2019-03-23T14:21:24.630Z,13.93
2019-03-23T14:26:20.539Z,12.43
2019-03-23T14:31:15.808Z,11.90
2019-03-23T14:36:11.153Z,11.43
2019-03-23T14:41:06.498Z,11.43
2019-03-23T14:46:01.815Z,12.87
2019-03-23T14:50:57.095Z,13.13
2019-03-23T14:55:52.366Z,11.77
2019-03-23T15:00:48.217Z,13.47
2019-03-23T15:05:43.543Z,19.70
2019-03-23T15:10:38.909Z,29.10
2019-03-23T15:15:34.181Z,31.83
2019-03-23T15:20:29.466Z,33.97
2019-03-23T15:25:24.992Z,33.67
2019-03-23T15:30:20.320Z,33.77
2019-03-23T15:35:15.913Z,35.10
2019-03-23T15:40:11.359Z,34.20
2019-03-23T15:45:08.191Z,33.90
2019-03-23T15:50:03.854Z,37.20
2019-03-23T15:54:59.130Z,34.77
2019-03-23T15:59:54.697Z,36.77
2019-03-23T16:04:50.026Z,39.50
2019-03-23T16:09:45.316Z,38.70
2019-03-23T16:14:40.586Z,41.80
2019-03-23T16:19:36.290Z,41.40
2019-03-23T16:24:31.563Z,41.23
2019-03-23T16:29:26.908Z,40.63
2019-03-23T16:34:22.182Z,37.83
2019-03-23T16:39:17.464Z,37.00
2019-03-23T16:44:12.799Z,35.47
2019-03-23T16:49:08.073Z,34.03
2019-03-23T16:54:03.755Z,32.03
2019-03-23T16:58:59.219Z,32.03
2019-03-23T17:03:54.492Z,30.40
2019-03-23T17:08:49.849Z,30.13
2019-03-23T17:13:45.129Z,30.70
2019-03-23T17:18:40.397Z,29.80
2019-03-23T17:23:35.672Z,27.60
2019-03-23T17:28:30.942Z,28.47
2019-03-23T17:33:26.229Z,28.40
2019-03-23T17:38:21.548Z,29.50
2019-03-23T17:43:16.838Z,27.80
2019-03-23T17:48:12.184Z,28.03
2019-03-23T17:53:07.570Z,29.00
2019-03-23T17:58:02.836Z,30.17
2019-03-23T18:02:58.551Z,30.53
2019-03-23T18:07:53.815Z,30.73
2019-03-23T18:12:49.102Z,30.77
2019-03-23T18:17:44.649Z,33.23
2019-03-23T18:22:40.023Z,33.00
2019-03-23T18:27:35.320Z,32.93
2019-03-23T18:32:30.603Z,32.30
2019-03-23T18:37:26.183Z,33.40
2019-03-23T18:42:21.478Z,34.23
2019-03-23T18:47:16.881Z,35.03
2019-03-23T18:52:12.183Z,34.70
2019-03-23T18:57:07.543Z,34.70
2019-03-23T19:02:03.855Z,35.33
2019-03-23T19:06:59.161Z,34.83
2019-03-23T19:11:54.442Z,34.53
2019-03-23T19:16:50.396Z,34.43
2019-03-23T19:21:45.687Z,35.23
2019-03-23T19:26:40.975Z,36.57
2019-03-23T19:31:36.571Z,34.30
2019-03-23T19:36:34.140Z,35.10
2019-03-23T19:41:29.698Z,34.90
2019-03-23T19:46:25.330Z,34.43
2019-03-23T19:51:26.918Z,35.20
2019-03-23T19:56:22.544Z,33.43
2019-03-23T20:01:17.833Z,33.20
2019-03-23T20:06:13.133Z,32.47
2019-03-23T20:11:08.434Z,32.60
2019-03-23T20:16:03.785Z,30.43
2019-03-23T20:20:59.370Z,31.60
2019-03-23T20:25:54.633Z,30.57
2019-03-23T20:30:50.171Z,32.17
2019-03-23T20:35:45.534Z,30.67
2019-03-23T20:40:40.808Z,29.97
2019-03-23T20:45:36.761Z,31.47
2019-03-23T20:50:32.151Z,29.07
2019-03-23T20:55:28.962Z,30.67
2019-03-23T21:00:24.882Z,31.23
2019-03-23T21:05:20.165Z,30.83
2019-03-23T21:10:15.457Z,31.13
2019-03-23T21:15:10.896Z,32.63
2019-03-23T21:20:06.467Z,30.90
2019-03-23T21:25:01.746Z,30.60
2019-03-23T21:29:56.996Z,29.40
2019-03-23T21:34:52.325Z,27.83
2019-03-23T21:39:47.620Z,27.67
2019-03-23T21:44:43.710Z,27.87
2019-03-23T21:49:38.990Z,28.17
2019-03-23T21:54:34.307Z,27.43
2019-03-23T21:59:29.575Z,27.03
2019-03-23T22:04:24.852Z,28.40
2019-03-23T22:09:20.111Z,27.17
2019-03-23T22:14:15.370Z,26.53
2019-03-23T22:19:10.640Z,26.37
2019-03-23T22:24:05.946Z,28.53
2019-03-23T22:29:04.368Z,25.13
2019-03-23T22:33:59.943Z,26.13
2019-03-23T22:38:55.222Z,26.23
2019-03-23T22:43:50.562Z,25.50
2019-03-23T22:48:45.977Z,26.17
2019-03-23T22:53:41.274Z,26.50
2019-03-23T22:58:36.568Z,24.40
2019-03-23T23:03:32.171Z,25.63
2019-03-23T23:08:27.432Z,24.93
2019-03-23T23:13:22.699Z,24.90
2019-03-23T23:18:18.101Z,24.80
2019-03-23T23:23:13.664Z,24.13
2019-03-23T23:28:09.291Z,25.27
2019-03-23T23:33:04.607Z,27.27
2019-03-23T23:38:00.173Z,25.47
2019-03-23T23:42:55.447Z,23.97
2019-03-23T23:47:50.818Z,24.70
2019-03-23T23:52:46.174Z,23.33
2019-03-23T23:57:41.456Z,25.80
